sensor_id;sensor_type;location;lat;lon;timestamp;temperature;humidity
58554;DHT22;48119;53.218;6.576;2024-03-17T00:01:20;10.90;99.90
58554;DHT22;48119;53.218;6.576;2024-03-17T00:03:46;10.90;99.90
58554;DHT22;48119;53.218;6.576;2024-03-17T00:06:12;10.90;99.90
58554;DHT22;48119;53.218;6.576;2024-03-17T00:08:37;10.90;99.90
58554;DHT22;48119;53.218;6.576;2024-03-17T00:11:03;10.90;99.90
58554;DHT22;48119;53.218;6.576;2024-03-17T00:13:29;10.80;99.90
58554;DHT22;48119;53.218;6.576;2024-03-17T00:15:55;10.80;99.90
58554;DHT22;48119;53.218;6.576;2024-03-17T00:18:21;10.80;99.90
58554;DHT22;48119;53.218;6.576;2024-03-17T00:20:47;10.80;99.90
58554;DHT22;48119;53.218;6.576;2024-03-17T00:23:12;10.80;99.90
58554;DHT22;48119;53.218;6.576;2024-03-17T00:25:39;10.70;99.90
58554;DHT22;48119;53.218;6.576;2024-03-17T00:28:05;10.70;99.90
58554;DHT22;48119;53.218;6.576;2024-03-17T00:30:31;10.70;99.90
58554;DHT22;48119;53.218;6.576;2024-03-17T00:32:57;10.70;99.90
58554;DHT22;48119;53.218;6.576;2024-03-17T00:35:26;10.70;99.90
58554;DHT22;48119;53.218;6.576;2024-03-17T00:37:52;10.70;99.90
58554;DHT22;48119;53.218;6.576;2024-03-17T00:40:19;10.70;99.90
58554;DHT22;48119;53.218;6.576;2024-03-17T00:42:45;10.70;99.90
58554;DHT22;48119;53.218;6.576;2024-03-17T00:45:11;10.70;99.90
58554;DHT22;48119;53.218;6.576;2024-03-17T00:47:38;10.60;99.90
58554;DHT22;48119;53.218;6.576;2024-03-17T00:50:04;10.70;99.90
58554;DHT22;48119;53.218;6.576;2024-03-17T00:52:32;10.70;99.90
58554;DHT22;48119;53.218;6.576;2024-03-17T00:54:58;10.70;99.90
58554;DHT22;48119;53.218;6.576;2024-03-17T00:57:23;10.60;99.90
58554;DHT22;48119;53.218;6.576;2024-03-17T00:59:50;10.60;99.90
58554;DHT22;48119;53.218;6.576;2024-03-17T01:02:16;10.60;99.90
58554;DHT22;48119;53.218;6.576;2024-03-17T01:04:43;10.60;99.90
58554;DHT22;48119;53.218;6.576;2024-03-17T01:07:09;10.50;99.90
58554;DHT22;48119;53.218;6.576;2024-03-17T01:09:35;10.60;99.90
58554;DHT22;48119;53.218;6.576;2024-03-17T01:12:01;10.50;99.90
58554;DHT22;48119;53.218;6.576;2024-03-17T01:14:28;10.50;99.90
58554;DHT22;48119;53.218;6.576;2024-03-17T01:16:54;10.50;99.90
58554;DHT22;48119;53.218;6.576;2024-03-17T01:19:20;10.50;99.90
58554;DHT22;48119;53.218;6.576;2024-03-17T01:21:46;10.50;99.90
58554;DHT22;48119;53.218;6.576;2024-03-17T01:24:12;10.50;99.90
58554;DHT22;48119;53.218;6.576;2024-03-17T01:26:42;10.50;99.90
58554;DHT22;48119;53.218;6.576;2024-03-17T01:29:07;10.40;99.90
58554;DHT22;48119;53.218;6.576;2024-03-17T01:31:34;10.40;99.90
58554;DHT22;48119;53.218;6.576;2024-03-17T01:34:00;10.40;99.90
58554;DHT22;48119;53.218;6.576;2024-03-17T01:36:26;10.40;99.90
58554;DHT22;48119;53.218;6.576;2024-03-17T01:38:55;10.40;99.90
58554;DHT22;48119;53.218;6.576;2024-03-17T01:41:21;10.40;99.90
58554;DHT22;48119;53.218;6.576;2024-03-17T01:43:47;10.40;99.90
58554;DHT22;48119;53.218;6.576;2024-03-17T01:46:14;10.30;99.90
58554;DHT22;48119;53.218;6.576;2024-03-17T01:48:40;10.30;99.90
58554;DHT22;48119;53.218;6.576;2024-03-17T01:51:07;10.30;99.90
58554;DHT22;48119;53.218;6.576;2024-03-17T01:53:35;10.30;99.90
58554;DHT22;48119;53.218;6.576;2024-03-17T01:56:01;10.30;99.90
58554;DHT22;48119;53.218;6.576;2024-03-17T01:58:27;10.30;99.90
58554;DHT22;48119;53.218;6.576;2024-03-17T02:00:56;10.20;99.90
58554;DHT22;48119;53.218;6.576;2024-03-17T02:03:22;10.20;99.90
58554;DHT22;48119;53.218;6.576;2024-03-17T02:05:48;10.20;99.90
58554;DHT22;48119;53.218;6.576;2024-03-17T02:08:14;10.20;99.90
58554;DHT22;48119;53.218;6.576;2024-03-17T02:10:40;10.20;99.90
58554;DHT22;48119;53.218;6.576;2024-03-17T02:13:06;10.20;99.90
58554;DHT22;48119;53.218;6.576;2024-03-17T02:15:33;10.20;99.90
58554;DHT22;48119;53.218;6.576;2024-03-17T02:17:59;10.20;99.90
58554;DHT22;48119;53.218;6.576;2024-03-17T02:20:25;10.20;99.90
58554;DHT22;48119;53.218;6.576;2024-03-17T02:23:11;10.10;99.90
58554;DHT22;48119;53.218;6.576;2024-03-17T02:25:37;10.10;99.90
58554;DHT22;48119;53.218;6.576;2024-03-17T02:28:03;10.10;99.90
58554;DHT22;48119;53.218;6.576;2024-03-17T02:30:30;10.10;99.90
58554;DHT22;48119;53.218;6.576;2024-03-17T02:32:56;10.10;99.90
58554;DHT22;48119;53.218;6.576;2024-03-17T02:35:25;10.10;99.90
58554;DHT22;48119;53.218;6.576;2024-03-17T02:37:51;10.00;99.90
58554;DHT22;48119;53.218;6.576;2024-03-17T02:40:17;10.00;99.90
58554;DHT22;48119;53.218;6.576;2024-03-17T02:42:44;10.00;99.90
58554;DHT22;48119;53.218;6.576;2024-03-17T02:45:11;9.90;99.90
58554;DHT22;48119;53.218;6.576;2024-03-17T02:47:40;9.90;99.90
58554;DHT22;48119;53.218;6.576;2024-03-17T02:50:07;9.90;99.90
58554;DHT22;48119;53.218;6.576;2024-03-17T02:52:33;9.90;99.90
58554;DHT22;48119;53.218;6.576;2024-03-17T02:54:59;9.90;99.90
58554;DHT22;48119;53.218;6.576;2024-03-17T02:57:26;9.90;99.90
58554;DHT22;48119;53.218;6.576;2024-03-17T03:00:04;9.90;99.90
58554;DHT22;48119;53.218;6.576;2024-03-17T03:02:30;9.80;99.90
58554;DHT22;48119;53.218;6.576;2024-03-17T03:04:56;9.80;99.90
58554;DHT22;48119;53.218;6.576;2024-03-17T03:07:22;9.80;99.90
58554;DHT22;48119;53.218;6.576;2024-03-17T03:09:48;9.80;99.90
58554;DHT22;48119;53.218;6.576;2024-03-17T03:12:14;9.80;99.90
58554;DHT22;48119;53.218;6.576;2024-03-17T03:14:40;9.80;99.90
58554;DHT22;48119;53.218;6.576;2024-03-17T03:17:06;9.80;99.90
58554;DHT22;48119;53.218;6.576;2024-03-17T03:19:32;9.80;99.90
58554;DHT22;48119;53.218;6.576;2024-03-17T03:21:57;9.80;99.90
58554;DHT22;48119;53.218;6.576;2024-03-17T03:24:23;9.80;99.90
58554;DHT22;48119;53.218;6.576;2024-03-17T03:26:49;9.80;99.90
58554;DHT22;48119;53.218;6.576;2024-03-17T03:29:15;9.80;99.90
58554;DHT22;48119;53.218;6.576;2024-03-17T03:31:40;9.80;99.90
58554;DHT22;48119;53.218;6.576;2024-03-17T03:34:09;9.80;99.90
58554;DHT22;48119;53.218;6.576;2024-03-17T03:36:35;9.80;99.90
58554;DHT22;48119;53.218;6.576;2024-03-17T03:39:02;9.70;99.90
58554;DHT22;48119;53.218;6.576;2024-03-17T03:41:30;9.70;99.90
58554;DHT22;48119;53.218;6.576;2024-03-17T03:43:56;9.70;99.90
58554;DHT22;48119;53.218;6.576;2024-03-17T03:46:22;9.70;99.90
58554;DHT22;48119;53.218;6.576;2024-03-17T03:48:47;9.70;99.90
58554;DHT22;48119;53.218;6.576;2024-03-17T03:51:13;9.70;99.90
58554;DHT22;48119;53.218;6.576;2024-03-17T03:53:39;9.70;99.90
58554;DHT22;48119;53.218;6.576;2024-03-17T03:56:06;9.70;99.90
58554;DHT22;48119;53.218;6.576;2024-03-17T03:58:33;9.70;99.90
58554;DHT22;48119;53.218;6.576;2024-03-17T04:01:05;9.70;99.90
58554;DHT22;48119;53.218;6.576;2024-03-17T04:03:32;9.70;99.90
58554;DHT22;48119;53.218;6.576;2024-03-17T04:06:16;9.70;99.90
58554;DHT22;48119;53.218;6.576;2024-03-17T04:08:43;9.70;99.90
58554;DHT22;48119;53.218;6.576;2024-03-17T04:11:09;9.70;99.90
58554;DHT22;48119;53.218;6.576;2024-03-17T04:13:36;9.70;99.90
58554;DHT22;48119;53.218;6.576;2024-03-17T04:16:06;9.70;99.90
58554;DHT22;48119;53.218;6.576;2024-03-17T04:18:33;9.70;99.90
58554;DHT22;48119;53.218;6.576;2024-03-17T04:21:05;9.70;99.90
58554;DHT22;48119;53.218;6.576;2024-03-17T04:23:33;9.70;99.90
58554;DHT22;48119;53.218;6.576;2024-03-17T04:25:59;9.70;99.90
58554;DHT22;48119;53.218;6.576;2024-03-17T04:28:26;9.70;99.90
58554;DHT22;48119;53.218;6.576;2024-03-17T04:30:51;9.70;99.90
58554;DHT22;48119;53.218;6.576;2024-03-17T04:33:17;9.60;99.90
58554;DHT22;48119;53.218;6.576;2024-03-17T04:35:43;9.60;99.90
58554;DHT22;48119;53.218;6.576;2024-03-17T04:38:09;9.60;99.90
58554;DHT22;48119;53.218;6.576;2024-03-17T04:40:41;9.50;99.90
58554;DHT22;48119;53.218;6.576;2024-03-17T04:43:07;9.60;99.90
58554;DHT22;48119;53.218;6.576;2024-03-17T04:45:33;9.50;99.90
58554;DHT22;48119;53.218;6.576;2024-03-17T04:47:59;9.50;99.90
58554;DHT22;48119;53.218;6.576;2024-03-17T04:50:25;9.50;99.90
58554;DHT22;48119;53.218;6.576;2024-03-17T04:52:52;9.50;99.90
58554;DHT22;48119;53.218;6.576;2024-03-17T04:55:18;9.60;99.90
58554;DHT22;48119;53.218;6.576;2024-03-17T04:57:45;9.50;99.90
58554;DHT22;48119;53.218;6.576;2024-03-17T05:00:11;9.50;99.90
58554;DHT22;48119;53.218;6.576;2024-03-17T05:02:39;9.60;99.90
58554;DHT22;48119;53.218;6.576;2024-03-17T05:05:05;9.50;99.90
58554;DHT22;48119;53.218;6.576;2024-03-17T05:07:34;9.50;99.90
58554;DHT22;48119;53.218;6.576;2024-03-17T05:10:00;9.60;99.90
58554;DHT22;48119;53.218;6.576;2024-03-17T05:12:26;9.50;99.90
58554;DHT22;48119;53.218;6.576;2024-03-17T05:14:51;9.50;99.90
58554;DHT22;48119;53.218;6.576;2024-03-17T05:17:17;9.50;99.90
58554;DHT22;48119;53.218;6.576;2024-03-17T05:19:43;9.40;99.90
58554;DHT22;48119;53.218;6.576;2024-03-17T05:22:09;9.50;99.90
58554;DHT22;48119;53.218;6.576;2024-03-17T05:24:36;9.40;99.90
58554;DHT22;48119;53.218;6.576;2024-03-17T05:27:02;9.40;99.90
58554;DHT22;48119;53.218;6.576;2024-03-17T05:29:28;9.40;99.90
58554;DHT22;48119;53.218;6.576;2024-03-17T05:31:53;9.40;99.90
58554;DHT22;48119;53.218;6.576;2024-03-17T05:34:19;9.40;99.90
58554;DHT22;48119;53.218;6.576;2024-03-17T05:36:45;9.40;99.90
58554;DHT22;48119;53.218;6.576;2024-03-17T05:39:12;9.50;99.90
58554;DHT22;48119;53.218;6.576;2024-03-17T05:41:38;9.40;99.90
58554;DHT22;48119;53.218;6.576;2024-03-17T05:44:04;9.50;99.90
58554;DHT22;48119;53.218;6.576;2024-03-17T05:46:30;9.50;99.90
58554;DHT22;48119;53.218;6.576;2024-03-17T05:48:55;9.50;99.90
58554;DHT22;48119;53.218;6.576;2024-03-17T05:51:21;9.50;99.90
58554;DHT22;48119;53.218;6.576;2024-03-17T05:53:48;9.50;99.90
58554;DHT22;48119;53.218;6.576;2024-03-17T05:56:14;9.50;99.90
58554;DHT22;48119;53.218;6.576;2024-03-17T05:58:41;9.50;99.90
58554;DHT22;48119;53.218;6.576;2024-03-17T06:01:07;9.50;99.90
58554;DHT22;48119;53.218;6.576;2024-03-17T06:03:34;9.50;99.90
58554;DHT22;48119;53.218;6.576;2024-03-17T06:06:02;9.50;99.90
58554;DHT22;48119;53.218;6.576;2024-03-17T06:08:29;9.50;99.90
58554;DHT22;48119;53.218;6.576;2024-03-17T06:10:55;9.50;99.90
58554;DHT22;48119;53.218;6.576;2024-03-17T06:13:23;9.60;99.90
58554;DHT22;48119;53.218;6.576;2024-03-17T06:15:50;9.60;99.90
58554;DHT22;48119;53.218;6.576;2024-03-17T06:18:16;9.60;99.90
58554;DHT22;48119;53.218;6.576;2024-03-17T06:20:47;9.50;99.90
58554;DHT22;48119;53.218;6.576;2024-03-17T06:23:14;9.50;99.90
58554;DHT22;48119;53.218;6.576;2024-03-17T06:25:40;9.50;99.90
58554;DHT22;48119;53.218;6.576;2024-03-17T06:28:08;9.50;99.90
58554;DHT22;48119;53.218;6.576;2024-03-17T06:30:35;9.50;99.90
58554;DHT22;48119;53.218;6.576;2024-03-17T06:33:01;9.60;99.90
58554;DHT22;48119;53.218;6.576;2024-03-17T06:35:27;9.60;99.90
58554;DHT22;48119;53.218;6.576;2024-03-17T06:37:55;9.60;99.90
58554;DHT22;48119;53.218;6.576;2024-03-17T06:40:23;9.60;99.90
58554;DHT22;48119;53.218;6.576;2024-03-17T06:42:50;9.60;99.90
58554;DHT22;48119;53.218;6.576;2024-03-17T06:45:17;9.60;99.90
58554;DHT22;48119;53.218;6.576;2024-03-17T06:47:46;9.60;99.90
58554;DHT22;48119;53.218;6.576;2024-03-17T06:50:12;9.60;99.90
58554;DHT22;48119;53.218;6.576;2024-03-17T06:52:38;9.60;99.90
58554;DHT22;48119;53.218;6.576;2024-03-17T06:55:05;9.60;99.90
58554;DHT22;48119;53.218;6.576;2024-03-17T06:57:32;9.60;99.90
58554;DHT22;48119;53.218;6.576;2024-03-17T06:59:59;9.60;99.90
58554;DHT22;48119;53.218;6.576;2024-03-17T07:02:25;9.60;99.90
58554;DHT22;48119;53.218;6.576;2024-03-17T07:04:51;9.60;99.90
58554;DHT22;48119;53.218;6.576;2024-03-17T07:07:17;9.60;99.90
58554;DHT22;48119;53.218;6.576;2024-03-17T07:09:43;9.60;99.90
58554;DHT22;48119;53.218;6.576;2024-03-17T07:12:10;9.70;99.90
58554;DHT22;48119;53.218;6.576;2024-03-17T07:14:36;9.60;99.90
58554;DHT22;48119;53.218;6.576;2024-03-17T07:17:03;9.70;99.90
58554;DHT22;48119;53.218;6.576;2024-03-17T07:19:30;9.70;99.90
58554;DHT22;48119;53.218;6.576;2024-03-17T07:21:57;9.70;99.90
58554;DHT22;48119;53.218;6.576;2024-03-17T07:24:23;9.70;99.90
58554;DHT22;48119;53.218;6.576;2024-03-17T07:26:49;9.70;99.90
58554;DHT22;48119;53.218;6.576;2024-03-17T07:29:15;9.80;99.90
58554;DHT22;48119;53.218;6.576;2024-03-17T07:31:41;9.80;99.90
58554;DHT22;48119;53.218;6.576;2024-03-17T07:34:07;9.80;99.90
58554;DHT22;48119;53.218;6.576;2024-03-17T07:36:32;9.80;99.90
58554;DHT22;48119;53.218;6.576;2024-03-17T07:38:58;9.80;99.90
58554;DHT22;48119;53.218;6.576;2024-03-17T07:41:24;9.90;99.90
58554;DHT22;48119;53.218;6.576;2024-03-17T07:43:50;9.90;99.90
58554;DHT22;48119;53.218;6.576;2024-03-17T07:46:16;10.00;99.90
58554;DHT22;48119;53.218;6.576;2024-03-17T07:48:44;10.00;99.90
58554;DHT22;48119;53.218;6.576;2024-03-17T07:51:10;10.00;99.90
58554;DHT22;48119;53.218;6.576;2024-03-17T07:53:38;10.00;99.90
58554;DHT22;48119;53.218;6.576;2024-03-17T07:56:12;10.10;99.90
58554;DHT22;48119;53.218;6.576;2024-03-17T07:58:40;10.10;99.90
58554;DHT22;48119;53.218;6.576;2024-03-17T08:03:51;10.00;99.90
58554;DHT22;48119;53.218;6.576;2024-03-17T08:06:21;10.10;99.90
58554;DHT22;48119;53.218;6.576;2024-03-17T08:08:47;10.00;99.90
58554;DHT22;48119;53.218;6.576;2024-03-17T08:11:13;10.00;99.90
58554;DHT22;48119;53.218;6.576;2024-03-17T08:13:39;10.10;99.90
58554;DHT22;48119;53.218;6.576;2024-03-17T08:16:06;10.10;99.90
58554;DHT22;48119;53.218;6.576;2024-03-17T08:18:33;10.10;99.90
58554;DHT22;48119;53.218;6.576;2024-03-17T08:21:02;10.10;99.90
58554;DHT22;48119;53.218;6.576;2024-03-17T08:23:32;10.20;99.90
58554;DHT22;48119;53.218;6.576;2024-03-17T08:26:00;10.20;99.90
58554;DHT22;48119;53.218;6.576;2024-03-17T08:28:27;10.20;99.90
58554;DHT22;48119;53.218;6.576;2024-03-17T08:31:00;10.20;99.90
58554;DHT22;48119;53.218;6.576;2024-03-17T08:33:27;10.20;99.90
58554;DHT22;48119;53.218;6.576;2024-03-17T08:38:20;10.30;99.90
58554;DHT22;48119;53.218;6.576;2024-03-17T08:40:47;10.30;99.90
58554;DHT22;48119;53.218;6.576;2024-03-17T08:43:13;10.40;99.90
58554;DHT22;48119;53.218;6.576;2024-03-17T08:45:38;10.40;99.90
58554;DHT22;48119;53.218;6.576;2024-03-17T08:48:04;10.40;99.90
58554;DHT22;48119;53.218;6.576;2024-03-17T08:50:30;10.50;99.90
58554;DHT22;48119;53.218;6.576;2024-03-17T08:52:59;10.50;99.90
58554;DHT22;48119;53.218;6.576;2024-03-17T08:55:24;10.50;99.90
58554;DHT22;48119;53.218;6.576;2024-03-17T08:57:50;10.50;99.90
58554;DHT22;48119;53.218;6.576;2024-03-17T09:00:16;10.50;99.90
58554;DHT22;48119;53.218;6.576;2024-03-17T09:02:42;10.50;99.90
58554;DHT22;48119;53.218;6.576;2024-03-17T09:05:08;10.50;99.90
58554;DHT22;48119;53.218;6.576;2024-03-17T09:07:33;10.60;99.90
58554;DHT22;48119;53.218;6.576;2024-03-17T09:09:59;10.60;99.90
58554;DHT22;48119;53.218;6.576;2024-03-17T09:12:28;10.60;99.90
58554;DHT22;48119;53.218;6.576;2024-03-17T09:14:55;10.60;99.90
58554;DHT22;48119;53.218;6.576;2024-03-17T09:17:21;10.60;99.90
58554;DHT22;48119;53.218;6.576;2024-03-17T09:19:47;10.70;99.90
58554;DHT22;48119;53.218;6.576;2024-03-17T09:22:15;10.70;99.90
58554;DHT22;48119;53.218;6.576;2024-03-17T09:24:41;10.60;99.90
58554;DHT22;48119;53.218;6.576;2024-03-17T09:27:07;10.70;99.90
58554;DHT22;48119;53.218;6.576;2024-03-17T09:29:33;10.70;99.90
58554;DHT22;48119;53.218;6.576;2024-03-17T09:31:59;10.70;99.90
58554;DHT22;48119;53.218;6.576;2024-03-17T09:34:25;10.70;99.90
58554;DHT22;48119;53.218;6.576;2024-03-17T09:36:50;10.80;99.90
58554;DHT22;48119;53.218;6.576;2024-03-17T09:39:16;10.80;99.90
58554;DHT22;48119;53.218;6.576;2024-03-17T09:41:42;10.90;99.90
58554;DHT22;48119;53.218;6.576;2024-03-17T09:44:12;10.90;99.90
58554;DHT22;48119;53.218;6.576;2024-03-17T09:46:41;10.90;99.90
58554;DHT22;48119;53.218;6.576;2024-03-17T09:49:15;10.90;99.90
58554;DHT22;48119;53.218;6.576;2024-03-17T09:51:44;10.90;99.90
58554;DHT22;48119;53.218;6.576;2024-03-17T09:54:18;11.00;99.90
58554;DHT22;48119;53.218;6.576;2024-03-17T09:56:45;11.00;99.90
58554;DHT22;48119;53.218;6.576;2024-03-17T09:59:11;11.00;99.90
58554;DHT22;48119;53.218;6.576;2024-03-17T10:01:37;11.10;99.90
58554;DHT22;48119;53.218;6.576;2024-03-17T10:04:02;11.10;99.90
58554;DHT22;48119;53.218;6.576;2024-03-17T10:06:44;11.10;99.90
58554;DHT22;48119;53.218;6.576;2024-03-17T10:09:13;11.10;99.90
58554;DHT22;48119;53.218;6.576;2024-03-17T10:11:46;11.10;99.90
58554;DHT22;48119;53.218;6.576;2024-03-17T10:14:16;11.10;99.90
58554;DHT22;48119;53.218;6.576;2024-03-17T10:16:43;11.10;99.90
58554;DHT22;48119;53.218;6.576;2024-03-17T10:19:26;11.10;99.90
58554;DHT22;48119;53.218;6.576;2024-03-17T10:22:00;11.20;99.90
58554;DHT22;48119;53.218;6.576;2024-03-17T10:24:27;11.20;99.90
58554;DHT22;48119;53.218;6.576;2024-03-17T10:26:58;11.20;99.90
58554;DHT22;48119;53.218;6.576;2024-03-17T10:29:28;11.20;99.90
58554;DHT22;48119;53.218;6.576;2024-03-17T10:32:15;11.20;99.90
58554;DHT22;48119;53.218;6.576;2024-03-17T10:34:44;11.20;99.90
58554;DHT22;48119;53.218;6.576;2024-03-17T10:37:20;11.20;99.90
58554;DHT22;48119;53.218;6.576;2024-03-17T10:39:51;11.20;99.90
58554;DHT22;48119;53.218;6.576;2024-03-17T10:42:25;11.20;99.90
58554;DHT22;48119;53.218;6.576;2024-03-17T10:44:51;11.20;99.90
58554;DHT22;48119;53.218;6.576;2024-03-17T10:47:24;11.30;99.90
58554;DHT22;48119;53.218;6.576;2024-03-17T10:49:52;11.30;99.90
58554;DHT22;48119;53.218;6.576;2024-03-17T10:52:19;11.30;99.90
58554;DHT22;48119;53.218;6.576;2024-03-17T10:54:50;11.30;99.90
58554;DHT22;48119;53.218;6.576;2024-03-17T11:00:05;11.30;99.90
58554;DHT22;48119;53.218;6.576;2024-03-17T11:02:35;11.30;99.90
58554;DHT22;48119;53.218;6.576;2024-03-17T11:05:25;11.30;99.90
58554;DHT22;48119;53.218;6.576;2024-03-17T11:07:52;11.40;99.90
58554;DHT22;48119;53.218;6.576;2024-03-17T11:10:29;11.40;99.90
58554;DHT22;48119;53.218;6.576;2024-03-17T11:12:59;11.40;99.90
58554;DHT22;48119;53.218;6.576;2024-03-17T11:20:37;11.50;99.90
58554;DHT22;48119;53.218;6.576;2024-03-17T11:23:03;11.50;99.90
58554;DHT22;48119;53.218;6.576;2024-03-17T11:28:02;11.50;99.90
58554;DHT22;48119;53.218;6.576;2024-03-17T11:38:58;11.60;99.90
58554;DHT22;48119;53.218;6.576;2024-03-17T11:46:55;11.70;99.90
58554;DHT22;48119;53.218;6.576;2024-03-17T11:49:23;11.70;99.90
58554;DHT22;48119;53.218;6.576;2024-03-17T11:51:50;11.70;99.90
58554;DHT22;48119;53.218;6.576;2024-03-17T11:54:18;11.70;99.90
58554;DHT22;48119;53.218;6.576;2024-03-17T11:56:48;11.80;99.90
58554;DHT22;48119;53.218;6.576;2024-03-17T11:59:15;11.80;99.90
58554;DHT22;48119;53.218;6.576;2024-03-17T12:01:47;11.80;99.90
58554;DHT22;48119;53.218;6.576;2024-03-17T12:04:18;11.80;99.90
58554;DHT22;48119;53.218;6.576;2024-03-17T12:06:58;11.90;99.90
58554;DHT22;48119;53.218;6.576;2024-03-17T12:09:29;11.90;99.90
58554;DHT22;48119;53.218;6.576;2024-03-17T12:12:06;11.90;99.90
58554;DHT22;48119;53.218;6.576;2024-03-17T12:14:32;11.90;99.90
58554;DHT22;48119;53.218;6.576;2024-03-17T12:17:07;11.90;99.90
58554;DHT22;48119;53.218;6.576;2024-03-17T12:19:34;11.90;99.90
58554;DHT22;48119;53.218;6.576;2024-03-17T12:22:01;11.90;99.90
58554;DHT22;48119;53.218;6.576;2024-03-17T12:24:29;11.90;99.90
58554;DHT22;48119;53.218;6.576;2024-03-17T12:26:56;12.00;99.90
58554;DHT22;48119;53.218;6.576;2024-03-17T12:31:51;12.00;99.90
58554;DHT22;48119;53.218;6.576;2024-03-17T12:34:18;12.10;99.90
58554;DHT22;48119;53.218;6.576;2024-03-17T12:36:45;12.10;99.90
58554;DHT22;48119;53.218;6.576;2024-03-17T12:39:19;12.20;99.90
58554;DHT22;48119;53.218;6.576;2024-03-17T12:42:00;12.20;99.90
58554;DHT22;48119;53.218;6.576;2024-03-17T12:44:26;12.20;99.90
58554;DHT22;48119;53.218;6.576;2024-03-17T12:46:59;12.20;99.90
58554;DHT22;48119;53.218;6.576;2024-03-17T12:49:32;12.20;99.90
58554;DHT22;48119;53.218;6.576;2024-03-17T12:52:00;12.10;99.90
58554;DHT22;48119;53.218;6.576;2024-03-17T12:54:27;12.10;99.90
58554;DHT22;48119;53.218;6.576;2024-03-17T12:57:09;12.20;99.90
58554;DHT22;48119;53.218;6.576;2024-03-17T12:59:55;12.20;99.90
58554;DHT22;48119;53.218;6.576;2024-03-17T13:02:43;12.20;99.90
58554;DHT22;48119;53.218;6.576;2024-03-17T13:05:17;12.30;99.90
58554;DHT22;48119;53.218;6.576;2024-03-17T13:07:44;12.30;99.90
58554;DHT22;48119;53.218;6.576;2024-03-17T13:10:13;12.30;99.90
58554;DHT22;48119;53.218;6.576;2024-03-17T13:12:39;12.30;99.90
58554;DHT22;48119;53.218;6.576;2024-03-17T13:15:05;12.30;99.90
58554;DHT22;48119;53.218;6.576;2024-03-17T13:17:31;12.30;99.90
58554;DHT22;48119;53.218;6.576;2024-03-17T13:20:00;12.40;99.90
58554;DHT22;48119;53.218;6.576;2024-03-17T13:22:26;12.40;99.90
58554;DHT22;48119;53.218;6.576;2024-03-17T13:24:52;12.40;99.90
58554;DHT22;48119;53.218;6.576;2024-03-17T13:27:17;12.40;99.90
58554;DHT22;48119;53.218;6.576;2024-03-17T13:29:48;12.40;99.90
58554;DHT22;48119;53.218;6.576;2024-03-17T13:32:13;12.40;99.90
58554;DHT22;48119;53.218;6.576;2024-03-17T13:34:39;12.40;99.90
58554;DHT22;48119;53.218;6.576;2024-03-17T13:37:05;12.30;99.90
58554;DHT22;48119;53.218;6.576;2024-03-17T13:39:31;12.40;99.90
58554;DHT22;48119;53.218;6.576;2024-03-17T13:41:57;12.30;99.90
58554;DHT22;48119;53.218;6.576;2024-03-17T13:44:32;12.30;99.90
58554;DHT22;48119;53.218;6.576;2024-03-17T13:46:59;12.40;99.90
58554;DHT22;48119;53.218;6.576;2024-03-17T13:49:27;12.40;99.90
58554;DHT22;48119;53.218;6.576;2024-03-17T13:51:54;12.40;99.90
58554;DHT22;48119;53.218;6.576;2024-03-17T13:54:20;12.30;99.90
58554;DHT22;48119;53.218;6.576;2024-03-17T13:56:47;12.40;99.90
58554;DHT22;48119;53.218;6.576;2024-03-17T13:59:14;12.40;99.90
58554;DHT22;48119;53.218;6.576;2024-03-17T14:01:41;12.40;99.90
58554;DHT22;48119;53.218;6.576;2024-03-17T14:04:15;12.40;99.90
58554;DHT22;48119;53.218;6.576;2024-03-17T14:06:45;12.40;99.90
58554;DHT22;48119;53.218;6.576;2024-03-17T14:09:17;12.40;99.90
58554;DHT22;48119;53.218;6.576;2024-03-17T14:11:44;12.50;99.90
58554;DHT22;48119;53.218;6.576;2024-03-17T14:14:11;12.50;99.90
58554;DHT22;48119;53.218;6.576;2024-03-17T14:16:37;12.50;99.90
58554;DHT22;48119;53.218;6.576;2024-03-17T14:19:03;12.50;99.90
58554;DHT22;48119;53.218;6.576;2024-03-17T14:21:29;12.60;99.90
58554;DHT22;48119;53.218;6.576;2024-03-17T14:23:55;12.60;99.90
58554;DHT22;48119;53.218;6.576;2024-03-17T14:26:22;12.60;99.90
58554;DHT22;48119;53.218;6.576;2024-03-17T14:28:48;12.60;99.90
58554;DHT22;48119;53.218;6.576;2024-03-17T14:31:16;12.60;99.90
58554;DHT22;48119;53.218;6.576;2024-03-17T14:33:43;12.60;99.90
58554;DHT22;48119;53.218;6.576;2024-03-17T14:36:09;12.60;99.90
58554;DHT22;48119;53.218;6.576;2024-03-17T14:38:35;12.60;99.90
58554;DHT22;48119;53.218;6.576;2024-03-17T14:41:01;12.60;99.90
58554;DHT22;48119;53.218;6.576;2024-03-17T14:43:30;12.60;99.90
58554;DHT22;48119;53.218;6.576;2024-03-17T14:45:56;12.60;99.90
58554;DHT22;48119;53.218;6.576;2024-03-17T14:48:22;12.60;99.90
58554;DHT22;48119;53.218;6.576;2024-03-17T14:50:49;12.70;99.90
58554;DHT22;48119;53.218;6.576;2024-03-17T14:53:14;12.70;99.90
58554;DHT22;48119;53.218;6.576;2024-03-17T14:55:42;12.70;99.90
58554;DHT22;48119;53.218;6.576;2024-03-17T14:58:08;12.70;99.90
58554;DHT22;48119;53.218;6.576;2024-03-17T15:00:35;12.70;99.90
58554;DHT22;48119;53.218;6.576;2024-03-17T15:03:01;12.60;99.90
58554;DHT22;48119;53.218;6.576;2024-03-17T15:05:27;12.60;99.90
58554;DHT22;48119;53.218;6.576;2024-03-17T15:07:53;12.60;99.90
58554;DHT22;48119;53.218;6.576;2024-03-17T15:10:19;12.70;99.90
58554;DHT22;48119;53.218;6.576;2024-03-17T15:12:50;12.60;99.90
58554;DHT22;48119;53.218;6.576;2024-03-17T15:15:16;12.70;99.90
58554;DHT22;48119;53.218;6.576;2024-03-17T15:17:42;12.70;99.90
58554;DHT22;48119;53.218;6.576;2024-03-17T15:20:10;12.70;99.90
58554;DHT22;48119;53.218;6.576;2024-03-17T15:22:51;12.70;99.90
58554;DHT22;48119;53.218;6.576;2024-03-17T15:25:17;12.70;99.90
58554;DHT22;48119;53.218;6.576;2024-03-17T15:27:44;12.70;99.90
58554;DHT22;48119;53.218;6.576;2024-03-17T15:30:17;12.60;99.90
58554;DHT22;48119;53.218;6.576;2024-03-17T15:32:51;12.70;99.90
58554;DHT22;48119;53.218;6.576;2024-03-17T15:35:23;12.70;99.90
58554;DHT22;48119;53.218;6.576;2024-03-17T15:37:49;12.70;99.90
58554;DHT22;48119;53.218;6.576;2024-03-17T15:40:15;12.70;99.90
58554;DHT22;48119;53.218;6.576;2024-03-17T15:42:45;12.70;99.90
58554;DHT22;48119;53.218;6.576;2024-03-17T15:45:12;12.70;99.90
58554;DHT22;48119;53.218;6.576;2024-03-17T15:47:38;12.70;99.90
58554;DHT22;48119;53.218;6.576;2024-03-17T15:50:03;12.70;99.90
58554;DHT22;48119;53.218;6.576;2024-03-17T15:52:29;12.70;99.90
58554;DHT22;48119;53.218;6.576;2024-03-17T15:54:58;12.70;99.90
58554;DHT22;48119;53.218;6.576;2024-03-17T15:57:30;12.70;99.90
58554;DHT22;48119;53.218;6.576;2024-03-17T15:59:57;12.70;99.90
58554;DHT22;48119;53.218;6.576;2024-03-17T16:02:25;12.70;99.90
58554;DHT22;48119;53.218;6.576;2024-03-17T16:04:52;12.80;99.90
58554;DHT22;48119;53.218;6.576;2024-03-17T16:07:19;12.70;99.90
58554;DHT22;48119;53.218;6.576;2024-03-17T16:09:48;12.80;99.90